sensor_id;sensor_type;location;lat;lon;timestamp;P1;durP1;ratioP1;P2;durP2;ratioP2
72388;SDS011;60566;48.062;9.930;2023-07-16T00:01:30;9.70;;;5.60;;
72388;SDS011;60566;48.062;9.930;2023-07-16T00:03:55;8.93;;;6.10;;
72388;SDS011;60566;48.062;9.930;2023-07-16T00:06:22;14.07;;;6.95;;
72388;SDS011;60566;48.062;9.930;2023-07-16T00:08:47;13.07;;;6.43;;
72388;SDS011;60566;48.062;9.930;2023-07-16T00:11:13;12.48;;;6.03;;
72388;SDS011;60566;48.062;9.930;2023-07-16T00:13:38;11.30;;;6.47;;
72388;SDS011;60566;48.062;9.930;2023-07-16T00:16:04;9.70;;;6.07;;
72388;SDS011;60566;48.062;9.930;2023-07-16T00:18:29;11.20;;;6.20;;
72388;SDS011;60566;48.062;9.930;2023-07-16T00:20:57;10.32;;;6.20;;
72388;SDS011;60566;48.062;9.930;2023-07-16T00:23:24;10.43;;;6.10;;
72388;SDS011;60566;48.062;9.930;2023-07-16T00:25:49;9.25;;;6.55;;
72388;SDS011;60566;48.062;9.930;2023-07-16T00:28:15;8.52;;;4.43;;
72388;SDS011;60566;48.062;9.930;2023-07-16T00:30:40;8.30;;;4.70;;
72388;SDS011;60566;48.062;9.930;2023-07-16T00:33:06;10.60;;;4.50;;
72388;SDS011;60566;48.062;9.930;2023-07-16T00:35:31;8.10;;;5.00;;
72388;SDS011;60566;48.062;9.930;2023-07-16T00:37:56;11.75;;;4.82;;
72388;SDS011;60566;48.062;9.930;2023-07-16T00:40:23;9.65;;;5.38;;
72388;SDS011;60566;48.062;9.930;2023-07-16T00:42:48;9.80;;;5.05;;
72388;SDS011;60566;48.062;9.930;2023-07-16T00:45:14;9.63;;;4.50;;
72388;SDS011;60566;48.062;9.930;2023-07-16T00:47:40;9.02;;;4.30;;
72388;SDS011;60566;48.062;9.930;2023-07-16T00:50:06;8.32;;;4.43;;
72388;SDS011;60566;48.062;9.930;2023-07-16T00:52:32;10.07;;;4.72;;
72388;SDS011;60566;48.062;9.930;2023-07-16T00:54:58;8.55;;;4.97;;
72388;SDS011;60566;48.062;9.930;2023-07-16T00:57:25;9.13;;;4.82;;
72388;SDS011;60566;48.062;9.930;2023-07-16T00:59:50;10.35;;;5.20;;
72388;SDS011;60566;48.062;9.930;2023-07-16T01:02:15;11.18;;;6.18;;
72388;SDS011;60566;48.062;9.930;2023-07-16T01:04:41;10.02;;;5.72;;
72388;SDS011;60566;48.062;9.930;2023-07-16T01:07:06;11.15;;;5.38;;
72388;SDS011;60566;48.062;9.930;2023-07-16T01:09:33;9.27;;;4.78;;
72388;SDS011;60566;48.062;9.930;2023-07-16T01:12:00;6.60;;;4.22;;
72388;SDS011;60566;48.062;9.930;2023-07-16T01:14:26;7.38;;;4.90;;
72388;SDS011;60566;48.062;9.930;2023-07-16T01:16:52;8.23;;;5.03;;
72388;SDS011;60566;48.062;9.930;2023-07-16T01:19:17;10.57;;;5.43;;
72388;SDS011;60566;48.062;9.930;2023-07-16T01:21:44;11.57;;;5.05;;
72388;SDS011;60566;48.062;9.930;2023-07-16T01:24:27;10.93;;;5.32;;
72388;SDS011;60566;48.062;9.930;2023-07-16T01:27:17;9.13;;;5.03;;
72388;SDS011;60566;48.062;9.930;2023-07-16T01:29:54;8.18;;;4.97;;
72388;SDS011;60566;48.062;9.930;2023-07-16T01:32:22;9.18;;;5.07;;
72388;SDS011;60566;48.062;9.930;2023-07-16T01:34:48;10.75;;;5.60;;
72388;SDS011;60566;48.062;9.930;2023-07-16T01:37:14;9.18;;;5.43;;
72388;SDS011;60566;48.062;9.930;2023-07-16T01:39:39;9.63;;;5.38;;
72388;SDS011;60566;48.062;9.930;2023-07-16T01:42:05;8.18;;;4.20;;
72388;SDS011;60566;48.062;9.930;2023-07-16T01:44:30;6.45;;;3.55;;
72388;SDS011;60566;48.062;9.930;2023-07-16T01:47:06;7.20;;;3.92;;
72388;SDS011;60566;48.062;9.930;2023-07-16T01:49:33;6.97;;;3.58;;
72388;SDS011;60566;48.062;9.930;2023-07-16T01:51:59;6.43;;;3.70;;
72388;SDS011;60566;48.062;9.930;2023-07-16T01:54:25;5.78;;;3.28;;
72388;SDS011;60566;48.062;9.930;2023-07-16T01:56:51;8.15;;;3.40;;
72388;SDS011;60566;48.062;9.930;2023-07-16T01:59:16;7.32;;;3.42;;
72388;SDS011;60566;48.062;9.930;2023-07-16T02:01:41;5.75;;;3.05;;
72388;SDS011;60566;48.062;9.930;2023-07-16T02:04:08;5.88;;;3.40;;
72388;SDS011;60566;48.062;9.930;2023-07-16T02:06:33;5.35;;;3.88;;
72388;SDS011;60566;48.062;9.930;2023-07-16T02:08:59;6.32;;;3.30;;
72388;SDS011;60566;48.062;9.930;2023-07-16T02:11:24;6.00;;;3.55;;
72388;SDS011;60566;48.062;9.930;2023-07-16T02:13:50;6.57;;;3.50;;
72388;SDS011;60566;48.062;9.930;2023-07-16T02:16:15;5.78;;;3.33;;
72388;SDS011;60566;48.062;9.930;2023-07-16T02:18:40;4.30;;;2.72;;
72388;SDS011;60566;48.062;9.930;2023-07-16T02:21:07;6.15;;;3.63;;
72388;SDS011;60566;48.062;9.930;2023-07-16T02:23:32;7.75;;;2.88;;
72388;SDS011;60566;48.062;9.930;2023-07-16T02:25:58;6.57;;;2.50;;
72388;SDS011;60566;48.062;9.930;2023-07-16T02:28:23;6.05;;;2.88;;
72388;SDS011;60566;48.062;9.930;2023-07-16T02:30:49;6.85;;;2.92;;
72388;SDS011;60566;48.062;9.930;2023-07-16T02:33:14;10.13;;;3.53;;
72388;SDS011;60566;48.062;9.930;2023-07-16T02:35:39;5.43;;;2.50;;
72388;SDS011;60566;48.062;9.930;2023-07-16T02:38:06;4.60;;;2.47;;
72388;SDS011;60566;48.062;9.930;2023-07-16T02:40:32;4.35;;;2.25;;
72388;SDS011;60566;48.062;9.930;2023-07-16T02:42:57;4.88;;;2.80;;
72388;SDS011;60566;48.062;9.930;2023-07-16T02:45:22;3.92;;;2.00;;
72388;SDS011;60566;48.062;9.930;2023-07-16T02:47:48;6.60;;;2.30;;
72388;SDS011;60566;48.062;9.930;2023-07-16T02:50:13;4.85;;;2.35;;
72388;SDS011;60566;48.062;9.930;2023-07-16T02:52:38;5.20;;;2.38;;
72388;SDS011;60566;48.062;9.930;2023-07-16T02:55:06;6.95;;;2.15;;
72388;SDS011;60566;48.062;9.930;2023-07-16T02:57:31;4.63;;;2.45;;
72388;SDS011;60566;48.062;9.930;2023-07-16T02:59:57;5.55;;;2.42;;
72388;SDS011;60566;48.062;9.930;2023-07-16T03:02:22;4.68;;;2.33;;
72388;SDS011;60566;48.062;9.930;2023-07-16T03:04:48;3.92;;;2.20;;
72388;SDS011;60566;48.062;9.930;2023-07-16T03:07:13;4.53;;;2.70;;
72388;SDS011;60566;48.062;9.930;2023-07-16T03:09:38;4.60;;;2.20;;
72388;SDS011;60566;48.062;9.930;2023-07-16T03:12:06;5.65;;;2.70;;
72388;SDS011;60566;48.062;9.930;2023-07-16T03:14:32;5.50;;;2.53;;
72388;SDS011;60566;48.062;9.930;2023-07-16T03:16:58;4.47;;;2.45;;
72388;SDS011;60566;48.062;9.930;2023-07-16T03:19:23;6.68;;;2.55;;
72388;SDS011;60566;48.062;9.930;2023-07-16T03:21:48;5.88;;;2.55;;
72388;SDS011;60566;48.062;9.930;2023-07-16T03:24:14;5.40;;;2.17;;
72388;SDS011;60566;48.062;9.930;2023-07-16T03:26:39;5.72;;;2.47;;
72388;SDS011;60566;48.062;9.930;2023-07-16T03:29:06;4.40;;;2.60;;
72388;SDS011;60566;48.062;9.930;2023-07-16T03:31:31;4.70;;;2.42;;
72388;SDS011;60566;48.062;9.930;2023-07-16T03:33:56;5.55;;;2.45;;
72388;SDS011;60566;48.062;9.930;2023-07-16T03:36:22;5.93;;;2.20;;
72388;SDS011;60566;48.062;9.930;2023-07-16T03:38:47;4.18;;;2.20;;
72388;SDS011;60566;48.062;9.930;2023-07-16T03:41:13;4.10;;;2.28;;
72388;SDS011;60566;48.062;9.930;2023-07-16T03:43:38;6.20;;;2.25;;
72388;SDS011;60566;48.062;9.930;2023-07-16T03:46:05;4.88;;;2.38;;
72388;SDS011;60566;48.062;9.930;2023-07-16T03:48:30;5.72;;;2.25;;
72388;SDS011;60566;48.062;9.930;2023-07-16T03:50:56;6.03;;;2.20;;
72388;SDS011;60566;48.062;9.930;2023-07-16T03:53:21;3.28;;;2.00;;
72388;SDS011;60566;48.062;9.930;2023-07-16T03:55:47;4.53;;;2.13;;
72388;SDS011;60566;48.062;9.930;2023-07-16T03:58:12;4.85;;;2.30;;
72388;SDS011;60566;48.062;9.930;2023-07-16T04:00:37;4.55;;;1.73;;
72388;SDS011;60566;48.062;9.930;2023-07-16T04:03:04;3.80;;;2.05;;
72388;SDS011;60566;48.062;9.930;2023-07-16T04:05:29;3.53;;;1.88;;
72388;SDS011;60566;48.062;9.930;2023-07-16T04:07:55;3.42;;;1.98;;
72388;SDS011;60566;48.062;9.930;2023-07-16T04:10:20;4.43;;;2.10;;
72388;SDS011;60566;48.062;9.930;2023-07-16T04:12:46;4.43;;;2.30;;
72388;SDS011;60566;48.062;9.930;2023-07-16T04:15:11;4.68;;;1.88;;
72388;SDS011;60566;48.062;9.930;2023-07-16T04:17:36;4.40;;;2.35;;
72388;SDS011;60566;48.062;9.930;2023-07-16T04:20:04;5.30;;;2.22;;
72388;SDS011;60566;48.062;9.930;2023-07-16T04:24:55;3.90;;;2.17;;
72388;SDS011;60566;48.062;9.930;2023-07-16T04:27:20;4.32;;;2.22;;
72388;SDS011;60566;48.062;9.930;2023-07-16T04:29:46;3.78;;;1.88;;
72388;SDS011;60566;48.062;9.930;2023-07-16T04:32:11;3.88;;;1.77;;
72388;SDS011;60566;48.062;9.930;2023-07-16T04:34:37;3.97;;;1.90;;
72388;SDS011;60566;48.062;9.930;2023-07-16T04:37:03;3.58;;;2.00;;
72388;SDS011;60566;48.062;9.930;2023-07-16T04:39:29;5.55;;;2.42;;
72388;SDS011;60566;48.062;9.930;2023-07-16T04:41:54;6.88;;;2.05;;
72388;SDS011;60566;48.062;9.930;2023-07-16T04:44:20;4.07;;;1.88;;
72388;SDS011;60566;48.062;9.930;2023-07-16T04:46:45;4.68;;;2.30;;
72388;SDS011;60566;48.062;9.930;2023-07-16T04:49:11;4.30;;;2.22;;
72388;SDS011;60566;48.062;9.930;2023-07-16T04:51:36;4.15;;;1.95;;
72388;SDS011;60566;48.062;9.930;2023-07-16T04:54:03;3.95;;;2.03;;
72388;SDS011;60566;48.062;9.930;2023-07-16T04:56:28;7.03;;;2.58;;
72388;SDS011;60566;48.062;9.930;2023-07-16T04:58:53;5.05;;;2.10;;
72388;SDS011;60566;48.062;9.930;2023-07-16T05:01:19;3.72;;;2.20;;
72388;SDS011;60566;48.062;9.930;2023-07-16T05:03:44;6.82;;;3.33;;
72388;SDS011;60566;48.062;9.930;2023-07-16T05:06:09;4.03;;;2.05;;
72388;SDS011;60566;48.062;9.930;2023-07-16T05:08:35;4.97;;;2.08;;
72388;SDS011;60566;48.062;9.930;2023-07-16T05:11:02;3.72;;;2.00;;
72388;SDS011;60566;48.062;9.930;2023-07-16T05:13:27;4.00;;;2.10;;
72388;SDS011;60566;48.062;9.930;2023-07-16T05:15:53;4.82;;;2.03;;
72388;SDS011;60566;48.062;9.930;2023-07-16T05:18:18;3.72;;;2.10;;
72388;SDS011;60566;48.062;9.930;2023-07-16T05:20:46;4.45;;;2.78;;
72388;SDS011;60566;48.062;9.930;2023-07-16T05:25:36;4.00;;;2.13;;
72388;SDS011;60566;48.062;9.930;2023-07-16T05:28:03;5.28;;;2.35;;
72388;SDS011;60566;48.062;9.930;2023-07-16T05:30:29;6.90;;;3.35;;
72388;SDS011;60566;48.062;9.930;2023-07-16T05:32:54;7.13;;;3.65;;
72388;SDS011;60566;48.062;9.930;2023-07-16T05:35:19;6.35;;;2.60;;
72388;SDS011;60566;48.062;9.930;2023-07-16T05:37:45;4.82;;;2.55;;
72388;SDS011;60566;48.062;9.930;2023-07-16T05:40:10;4.60;;;2.30;;
72388;SDS011;60566;48.062;9.930;2023-07-16T05:42:36;4.72;;;2.00;;
72388;SDS011;60566;48.062;9.930;2023-07-16T05:45:03;5.32;;;2.50;;
72388;SDS011;60566;48.062;9.930;2023-07-16T05:47:29;4.88;;;2.67;;
72388;SDS011;60566;48.062;9.930;2023-07-16T05:49:55;4.45;;;2.20;;
72388;SDS011;60566;48.062;9.930;2023-07-16T05:52:20;7.55;;;2.05;;
72388;SDS011;60566;48.062;9.930;2023-07-16T05:54:45;4.53;;;2.30;;
72388;SDS011;60566;48.062;9.930;2023-07-16T05:57:11;4.53;;;2.20;;
72388;SDS011;60566;48.062;9.930;2023-07-16T05:59:36;4.53;;;1.90;;
72388;SDS011;60566;48.062;9.930;2023-07-16T06:02:04;6.38;;;2.20;;
72388;SDS011;60566;48.062;9.930;2023-07-16T06:04:33;4.22;;;2.20;;
72388;SDS011;60566;48.062;9.930;2023-07-16T06:06:59;4.43;;;2.15;;
72388;SDS011;60566;48.062;9.930;2023-07-16T06:09:24;4.85;;;2.22;;
72388;SDS011;60566;48.062;9.930;2023-07-16T06:11:50;5.25;;;2.38;;
72388;SDS011;60566;48.062;9.930;2023-07-16T06:14:15;5.45;;;2.50;;
72388;SDS011;60566;48.062;9.930;2023-07-16T06:16:41;4.20;;;2.25;;
72388;SDS011;60566;48.062;9.930;2023-07-16T06:19:08;4.85;;;2.38;;
72388;SDS011;60566;48.062;9.930;2023-07-16T06:21:33;4.65;;;2.28;;
72388;SDS011;60566;48.062;9.930;2023-07-16T06:23:59;5.15;;;2.60;;
72388;SDS011;60566;48.062;9.930;2023-07-16T06:26:24;5.30;;;2.67;;
72388;SDS011;60566;48.062;9.930;2023-07-16T06:28:50;4.63;;;2.60;;
72388;SDS011;60566;48.062;9.930;2023-07-16T06:31:15;6.63;;;2.63;;
72388;SDS011;60566;48.062;9.930;2023-07-16T06:33:41;5.72;;;2.20;;
72388;SDS011;60566;48.062;9.930;2023-07-16T06:36:08;4.05;;;2.05;;
72388;SDS011;60566;48.062;9.930;2023-07-16T06:38:33;3.60;;;1.80;;
72388;SDS011;60566;48.062;9.930;2023-07-16T06:40:59;5.53;;;1.80;;
72388;SDS011;60566;48.062;9.930;2023-07-16T06:43:24;7.40;;;2.08;;
72388;SDS011;60566;48.062;9.930;2023-07-16T06:45:49;4.63;;;2.10;;
72388;SDS011;60566;48.062;9.930;2023-07-16T06:48:15;3.88;;;2.08;;
72388;SDS011;60566;48.062;9.930;2023-07-16T06:50:40;5.18;;;2.10;;
72388;SDS011;60566;48.062;9.930;2023-07-16T06:53:07;4.03;;;2.15;;
72388;SDS011;60566;48.062;9.930;2023-07-16T06:55:32;3.83;;;1.80;;
72388;SDS011;60566;48.062;9.930;2023-07-16T06:57:58;3.80;;;2.00;;
72388;SDS011;60566;48.062;9.930;2023-07-16T07:00:23;4.68;;;2.08;;
72388;SDS011;60566;48.062;9.930;2023-07-16T07:02:48;3.60;;;2.05;;
72388;SDS011;60566;48.062;9.930;2023-07-16T07:05:14;4.82;;;2.10;;
72388;SDS011;60566;48.062;9.930;2023-07-16T07:07:39;4.13;;;2.03;;
72388;SDS011;60566;48.062;9.930;2023-07-16T07:10:07;3.83;;;1.95;;
72388;SDS011;60566;48.062;9.930;2023-07-16T07:14:58;3.93;;;1.93;;
72388;SDS011;60566;48.062;9.930;2023-07-16T07:17:23;4.10;;;1.92;;
72388;SDS011;60566;48.062;9.930;2023-07-16T07:19:48;6.82;;;2.10;;
72388;SDS011;60566;48.062;9.930;2023-07-16T07:22:14;4.03;;;2.10;;
72388;SDS011;60566;48.062;9.930;2023-07-16T07:24:39;6.03;;;2.20;;
72388;SDS011;60566;48.062;9.930;2023-07-16T07:27:06;5.30;;;2.50;;
72388;SDS011;60566;48.062;9.930;2023-07-16T07:29:31;6.10;;;2.13;;
72388;SDS011;60566;48.062;9.930;2023-07-16T07:31:57;3.90;;;2.00;;
72388;SDS011;60566;48.062;9.930;2023-07-16T07:34:22;3.80;;;1.65;;
72388;SDS011;60566;48.062;9.930;2023-07-16T07:36:47;4.65;;;1.67;;
72388;SDS011;60566;48.062;9.930;2023-07-16T07:39:13;4.05;;;1.70;;
72388;SDS011;60566;48.062;9.930;2023-07-16T07:41:38;4.90;;;1.50;;
72388;SDS011;60566;48.062;9.930;2023-07-16T07:44:05;4.95;;;1.92;;
72388;SDS011;60566;48.062;9.930;2023-07-16T07:46:30;3.63;;;1.95;;
72388;SDS011;60566;48.062;9.930;2023-07-16T07:48:56;3.50;;;1.73;;
72388;SDS011;60566;48.062;9.930;2023-07-16T07:51:21;3.45;;;1.88;;
72388;SDS011;60566;48.062;9.930;2023-07-16T07:53:57;3.58;;;1.63;;
72388;SDS011;60566;48.062;9.930;2023-07-16T07:56:22;3.42;;;1.58;;
72388;SDS011;60566;48.062;9.930;2023-07-16T07:58:54;4.20;;;1.67;;
72388;SDS011;60566;48.062;9.930;2023-07-16T08:01:23;6.03;;;1.50;;
72388;SDS011;60566;48.062;9.930;2023-07-16T08:03:48;3.92;;;1.70;;
72388;SDS011;60566;48.062;9.930;2023-07-16T08:06:14;3.30;;;1.65;;
72388;SDS011;60566;48.062;9.930;2023-07-16T08:08:39;3.63;;;1.63;;
72388;SDS011;60566;48.062;9.930;2023-07-16T08:11:07;3.70;;;1.77;;
72388;SDS011;60566;48.062;9.930;2023-07-16T08:13:33;4.68;;;1.95;;
72388;SDS011;60566;48.062;9.930;2023-07-16T08:16:01;4.78;;;1.80;;
72388;SDS011;60566;48.062;9.930;2023-07-16T08:18:29;4.05;;;1.70;;
72388;SDS011;60566;48.062;9.930;2023-07-16T08:20:54;5.55;;;2.05;;
72388;SDS011;60566;48.062;9.930;2023-07-16T08:23:23;3.22;;;1.60;;
72388;SDS011;60566;48.062;9.930;2023-07-16T08:25:49;3.85;;;1.65;;
72388;SDS011;60566;48.062;9.930;2023-07-16T08:28:14;4.47;;;1.90;;
72388;SDS011;60566;48.062;9.930;2023-07-16T08:30:41;6.68;;;1.90;;
72388;SDS011;60566;48.062;9.930;2023-07-16T08:33:09;4.35;;;2.03;;
72388;SDS011;60566;48.062;9.930;2023-07-16T08:35:35;3.40;;;1.65;;
72388;SDS011;60566;48.062;9.930;2023-07-16T08:38:01;6.28;;;1.98;;
72388;SDS011;60566;48.062;9.930;2023-07-16T08:40:26;4.57;;;1.80;;
72388;SDS011;60566;48.062;9.930;2023-07-16T08:42:51;4.43;;;1.70;;
72388;SDS011;60566;48.062;9.930;2023-07-16T08:45:17;4.70;;;1.80;;
72388;SDS011;60566;48.062;9.930;2023-07-16T08:47:44;4.35;;;1.90;;
72388;SDS011;60566;48.062;9.930;2023-07-16T08:50:09;5.20;;;1.80;;
72388;SDS011;60566;48.062;9.930;2023-07-16T08:52:36;3.40;;;1.65;;
72388;SDS011;60566;48.062;9.930;2023-07-16T08:55:02;4.68;;;1.88;;
72388;SDS011;60566;48.062;9.930;2023-07-16T08:57:28;3.20;;;1.60;;
72388;SDS011;60566;48.062;9.930;2023-07-16T08:59:54;4.10;;;1.85;;
72388;SDS011;60566;48.062;9.930;2023-07-16T09:02:20;4.80;;;1.60;;
72388;SDS011;60566;48.062;9.930;2023-07-16T09:04:46;4.72;;;2.25;;
72388;SDS011;60566;48.062;9.930;2023-07-16T09:07:12;3.10;;;1.60;;
72388;SDS011;60566;48.062;9.930;2023-07-16T09:09:39;5.38;;;2.13;;
72388;SDS011;60566;48.062;9.930;2023-07-16T09:12:04;3.30;;;1.63;;
72388;SDS011;60566;48.062;9.930;2023-07-16T09:14:30;3.88;;;1.88;;
72388;SDS011;60566;48.062;9.930;2023-07-16T09:16:56;3.92;;;1.70;;
72388;SDS011;60566;48.062;9.930;2023-07-16T09:19:21;3.47;;;1.77;;
72388;SDS011;60566;48.062;9.930;2023-07-16T09:21:47;5.15;;;1.90;;
72388;SDS011;60566;48.062;9.930;2023-07-16T09:24:12;3.20;;;1.70;;
72388;SDS011;60566;48.062;9.930;2023-07-16T09:26:39;3.50;;;1.80;;
72388;SDS011;60566;48.062;9.930;2023-07-16T09:29:12;3.75;;;2.10;;
72388;SDS011;60566;48.062;9.930;2023-07-16T09:31:37;4.63;;;1.80;;
72388;SDS011;60566;48.062;9.930;2023-07-16T09:34:02;4.00;;;1.60;;
72388;SDS011;60566;48.062;9.930;2023-07-16T09:36:28;3.58;;;1.80;;
72388;SDS011;60566;48.062;9.930;2023-07-16T09:38:53;3.85;;;1.65;;
72388;SDS011;60566;48.062;9.930;2023-07-16T09:41:19;4.45;;;1.67;;
72388;SDS011;60566;48.062;9.930;2023-07-16T09:43:47;3.30;;;1.73;;
72388;SDS011;60566;48.062;9.930;2023-07-16T09:46:12;4.18;;;1.60;;
72388;SDS011;60566;48.062;9.930;2023-07-16T09:48:37;3.08;;;1.60;;
72388;SDS011;60566;48.062;9.930;2023-07-16T09:51:03;4.60;;;1.77;;
72388;SDS011;60566;48.062;9.930;2023-07-16T09:53:29;5.18;;;1.77;;
72388;SDS011;60566;48.062;9.930;2023-07-16T09:55:55;4.10;;;1.60;;
72388;SDS011;60566;48.062;9.930;2023-07-16T09:58:21;4.10;;;2.00;;
72388;SDS011;60566;48.062;9.930;2023-07-16T10:00:49;4.13;;;1.80;;
72388;SDS011;60566;48.062;9.930;2023-07-16T10:03:15;4.05;;;1.83;;
72388;SDS011;60566;48.062;9.930;2023-07-16T10:05:40;4.00;;;1.70;;
72388;SDS011;60566;48.062;9.930;2023-07-16T10:08:14;4.70;;;1.90;;
72388;SDS011;60566;48.062;9.930;2023-07-16T10:10:41;5.05;;;2.15;;
72388;SDS011;60566;48.062;9.930;2023-07-16T10:13:07;3.95;;;1.90;;
72388;SDS011;60566;48.062;9.930;2023-07-16T10:15:33;5.22;;;2.05;;
72388;SDS011;60566;48.062;9.930;2023-07-16T10:17:59;4.70;;;1.70;;
72388;SDS011;60566;48.062;9.930;2023-07-16T10:20:29;4.95;;;1.90;;
72388;SDS011;60566;48.062;9.930;2023-07-16T10:22:55;6.40;;;1.80;;
72388;SDS011;60566;48.062;9.930;2023-07-16T10:25:24;3.72;;;1.92;;
72388;SDS011;60566;48.062;9.930;2023-07-16T10:27:51;4.72;;;1.77;;
72388;SDS011;60566;48.062;9.930;2023-07-16T10:30:17;4.13;;;1.98;;
72388;SDS011;60566;48.062;9.930;2023-07-16T10:32:43;3.78;;;2.00;;
72388;SDS011;60566;48.062;9.930;2023-07-16T10:35:10;3.58;;;1.80;;
72388;SDS011;60566;48.062;9.930;2023-07-16T10:37:36;4.03;;;1.80;;
72388;SDS011;60566;48.062;9.930;2023-07-16T10:40:02;5.82;;;2.00;;
72388;SDS011;60566;48.062;9.930;2023-07-16T10:42:28;4.50;;;2.45;;
72388;SDS011;60566;48.062;9.930;2023-07-16T10:44:54;4.78;;;2.10;;
72388;SDS011;60566;48.062;9.930;2023-07-16T10:49:48;4.53;;;2.08;;
72388;SDS011;60566;48.062;9.930;2023-07-16T10:52:15;3.78;;;1.83;;
72388;SDS011;60566;48.062;9.930;2023-07-16T10:54:40;4.75;;;2.10;;
72388;SDS011;60566;48.062;9.930;2023-07-16T10:57:06;5.35;;;2.22;;
72388;SDS011;60566;48.062;9.930;2023-07-16T10:59:31;4.72;;;2.03;;
72388;SDS011;60566;48.062;9.930;2023-07-16T11:01:57;6.78;;;2.20;;
72388;SDS011;60566;48.062;9.930;2023-07-16T11:04:22;6.57;;;2.45;;
72388;SDS011;60566;48.062;9.930;2023-07-16T11:06:49;3.88;;;1.95;;
72388;SDS011;60566;48.062;9.930;2023-07-16T11:09:16;4.03;;;1.95;;
72388;SDS011;60566;48.062;9.930;2023-07-16T11:11:42;5.85;;;2.00;;
72388;SDS011;60566;48.062;9.930;2023-07-16T11:14:08;5.13;;;2.35;;
72388;SDS011;60566;48.062;9.930;2023-07-16T11:16:34;5.35;;;2.10;;
72388;SDS011;60566;48.062;9.930;2023-07-16T11:19:00;6.63;;;2.33;;
72388;SDS011;60566;48.062;9.930;2023-07-16T11:21:26;3.42;;;1.83;;
72388;SDS011;60566;48.062;9.930;2023-07-16T11:23:51;4.60;;;2.10;;
72388;SDS011;60566;48.062;9.930;2023-07-16T11:26:18;5.40;;;2.10;;
72388;SDS011;60566;48.062;9.930;2023-07-16T11:28:44;4.18;;;1.95;;
72388;SDS011;60566;48.062;9.930;2023-07-16T11:31:09;4.63;;;2.28;;
72388;SDS011;60566;48.062;9.930;2023-07-16T11:33:35;4.78;;;2.20;;
72388;SDS011;60566;48.062;9.930;2023-07-16T11:36:00;3.90;;;2.13;;
72388;SDS011;60566;48.062;9.930;2023-07-16T11:38:26;4.18;;;1.85;;
72388;SDS011;60566;48.062;9.930;2023-07-16T11:40:51;4.70;;;2.10;;
72388;SDS011;60566;48.062;9.930;2023-07-16T11:43:18;4.97;;;2.05;;
72388;SDS011;60566;48.062;9.930;2023-07-16T11:45:46;5.53;;;2.15;;
72388;SDS011;60566;48.062;9.930;2023-07-16T11:48:12;4.00;;;2.10;;
72388;SDS011;60566;48.062;9.930;2023-07-16T11:50:38;5.60;;;2.33;;
72388;SDS011;60566;48.062;9.930;2023-07-16T11:53:03;4.32;;;1.90;;
72388;SDS011;60566;48.062;9.930;2023-07-16T11:55:28;4.60;;;2.25;;
72388;SDS011;60566;48.062;9.930;2023-07-16T11:57:54;5.22;;;2.35;;
72388;SDS011;60566;48.062;9.930;2023-07-16T12:00:21;4.80;;;2.13;;
72388;SDS011;60566;48.062;9.930;2023-07-16T12:02:46;3.95;;;1.92;;
72388;SDS011;60566;48.062;9.930;2023-07-16T12:05:11;4.75;;;2.10;;
72388;SDS011;60566;48.062;9.930;2023-07-16T12:07:37;4.72;;;2.35;;
72388;SDS011;60566;48.062;9.930;2023-07-16T12:10:03;3.75;;;1.80;;
72388;SDS011;60566;48.062;9.930;2023-07-16T12:12:30;5.60;;;2.15;;
72388;SDS011;60566;48.062;9.930;2023-07-16T12:14:55;5.47;;;2.15;;
72388;SDS011;60566;48.062;9.930;2023-07-16T12:17:22;5.10;;;1.92;;
72388;SDS011;60566;48.062;9.930;2023-07-16T12:19:47;5.00;;;2.25;;
72388;SDS011;60566;48.062;9.930;2023-07-16T12:22:13;3.88;;;1.90;;
72388;SDS011;60566;48.062;9.930;2023-07-16T12:24:39;4.43;;;2.10;;
72388;SDS011;60566;48.062;9.930;2023-07-16T12:27:04;5.75;;;2.30;;
72388;SDS011;60566;48.062;9.930;2023-07-16T12:29:30;4.63;;;1.92;;
72388;SDS011;60566;48.062;9.930;2023-07-16T12:31:55;3.35;;;1.90;;
72388;SDS011;60566;48.062;9.930;2023-07-16T12:34:22;3.58;;;2.03;;
72388;SDS011;60566;48.062;9.930;2023-07-16T12:36:47;4.28;;;2.05;;
72388;SDS011;60566;48.062;9.930;2023-07-16T12:39:13;5.45;;;2.20;;
72388;SDS011;60566;48.062;9.930;2023-07-16T12:41:38;3.38;;;1.65;;
72388;SDS011;60566;48.062;9.930;2023-07-16T12:44:03;4.78;;;2.15;;
72388;SDS011;60566;48.062;9.930;2023-07-16T12:46:29;4.25;;;1.80;;
72388;SDS011;60566;48.062;9.930;2023-07-16T12:48:54;3.60;;;1.90;;
72388;SDS011;60566;48.062;9.930;2023-07-16T12:51:21;4.00;;;2.08;;
72388;SDS011;60566;48.062;9.930;2023-07-16T12:53:46;4.35;;;2.10;;
72388;SDS011;60566;48.062;9.930;2023-07-16T12:56:12;3.90;;;2.15;;
72388;SDS011;60566;48.062;9.930;2023-07-16T12:58:37;4.18;;;2.17;;
72388;SDS011;60566;48.062;9.930;2023-07-16T13:01:03;4.63;;;2.03;;
72388;SDS011;60566;48.062;9.930;2023-07-16T13:03:28;4.55;;;2.22;;
72388;SDS011;60566;48.062;9.930;2023-07-16T13:05:53;5.43;;;2.28;;
72388;SDS011;60566;48.062;9.930;2023-07-16T13:08:20;4.38;;;1.70;;
72388;SDS011;60566;48.062;9.930;2023-07-16T13:10:46;4.50;;;2.40;;
72388;SDS011;60566;48.062;9.930;2023-07-16T13:13:11;4.25;;;2.10;;
72388;SDS011;60566;48.062;9.930;2023-07-16T13:15:36;3.70;;;2.10;;
72388;SDS011;60566;48.062;9.930;2023-07-16T13:18:02;4.57;;;2.35;;
72388;SDS011;60566;48.062;9.930;2023-07-16T13:20:27;5.45;;;2.17;;
72388;SDS011;60566;48.062;9.930;2023-07-16T13:22:53;6.15;;;2.40;;
72388;SDS011;60566;48.062;9.930;2023-07-16T13:25:19;5.43;;;2.47;;
72388;SDS011;60566;48.062;9.930;2023-07-16T13:27:45;3.65;;;2.25;;
72388;SDS011;60566;48.062;9.930;2023-07-16T13:30:10;4.32;;;2.08;;
72388;SDS011;60566;48.062;9.930;2023-07-16T13:32:36;4.50;;;2.30;;
72388;SDS011;60566;48.062;9.930;2023-07-16T13:35:02;4.93;;;2.00;;
72388;SDS011;60566;48.062;9.930;2023-07-16T13:37:27;4.78;;;2.30;;
72388;SDS011;60566;48.062;9.930;2023-07-16T13:39:53;3.65;;;2.10;;
72388;SDS011;60566;48.062;9.930;2023-07-16T13:42:20;6.95;;;2.35;;
72388;SDS011;60566;48.062;9.930;2023-07-16T13:44:45;5.47;;;2.30;;
72388;SDS011;60566;48.062;9.930;2023-07-16T13:47:10;5.60;;;2.20;;
72388;SDS011;60566;48.062;9.930;2023-07-16T13:49:36;5.22;;;2.03;;
72388;SDS011;60566;48.062;9.930;2023-07-16T13:52:01;4.63;;;2.10;;
72388;SDS011;60566;48.062;9.930;2023-07-16T13:54:27;5.60;;;2.70;;
72388;SDS011;60566;48.062;9.930;2023-07-16T13:56:52;4.90;;;2.30;;
72388;SDS011;60566;48.062;9.930;2023-07-16T13:59:19;5.65;;;2.17;;
72388;SDS011;60566;48.062;9.930;2023-07-16T14:01:44;4.22;;;2.03;;
72388;SDS011;60566;48.062;9.930;2023-07-16T14:04:10;4.93;;;2.60;;
72388;SDS011;60566;48.062;9.930;2023-07-16T14:06:35;4.90;;;2.40;;
72388;SDS011;60566;48.062;9.930;2023-07-16T14:09:01;5.00;;;1.90;;
72388;SDS011;60566;48.062;9.930;2023-07-16T14:11:26;3.85;;;2.42;;
72388;SDS011;60566;48.062;9.930;2023-07-16T14:13:52;5.40;;;2.10;;
72388;SDS011;60566;48.062;9.930;2023-07-16T14:16:19;4.05;;;1.98;;
72388;SDS011;60566;48.062;9.930;2023-07-16T14:18:44;4.32;;;2.15;;
72388;SDS011;60566;48.062;9.930;2023-07-16T14:21:09;6.20;;;2.30;;
72388;SDS011;60566;48.062;9.930;2023-07-16T14:23:35;3.97;;;2.28;;
72388;SDS011;60566;48.062;9.930;2023-07-16T14:26:00;5.80;;;2.40;;
72388;SDS011;60566;48.062;9.930;2023-07-16T14:28:26;5.90;;;2.38;;
72388;SDS011;60566;48.062;9.930;2023-07-16T14:30:51;5.20;;;2.28;;
72388;SDS011;60566;48.062;9.930;2023-07-16T14:33:18;4.18;;;2.28;;
72388;SDS011;60566;48.062;9.930;2023-07-16T14:35:43;5.97;;;2.47;;
72388;SDS011;60566;48.062;9.930;2023-07-16T14:38:08;4.63;;;2.20;;
72388;SDS011;60566;48.062;9.930;2023-07-16T14:40:34;3.85;;;2.10;;
72388;SDS011;60566;48.062;9.930;2023-07-16T14:42:59;4.72;;;1.80;;
72388;SDS011;60566;48.062;9.930;2023-07-16T14:45:25;5.22;;;2.17;;
72388;SDS011;60566;48.062;9.930;2023-07-16T14:47:50;4.22;;;2.35;;
72388;SDS011;60566;48.062;9.930;2023-07-16T14:50:17;4.97;;;2.22;;